Dedham, Massachusetts
Current Conditions -  °F | °C
As of 3:53 PM on Friday 19 Dec 2014 (Local Time) from KOWD Reporting Station
Overcast Overcast  
Wind Chill: -1°   Ceiling: 3500
Heat Index:   Visibility: 10mi
Dew Point: -6°   Wind: 6mph
Humidity: 57%   Direction: 320°NW
Pressure: 29.99"   Gusts: NA
Location:  42.25°N, 71.17°W
Report Text: KOWD 192053Z 32005KT 10SM OVC035 02/M06 A2999 RMK AO2 SLP157 T00171061 53016
Loading
Personal Weather Stations






























Interactive Weather Map New forecast layout! Learn more

10-Day Weather Forecast

Advertisements
Track Severe Weather on mobile